Time;durP1;ratioP1;P1;durP2;ratioP2;P2;SDS_P1;SDS_P2;PMS_P1;PMS_P2;Temp;Humidity;BMP_temperature;BMP_pressure;BME280_temperature;BME280_humidity;BME280_pressure;Samples;Min_cycle;Max_cycle;Signal;HPM_P1;HPM_P2
2021/07/22 00:01:43;;;;;;;18.92;14.35;;;25.00;99.90;;;;;;5116282;28;20478;-69
2021/07/22 00:04:08;;;;;;;16.52;15.00;;;24.80;99.90;;;;;;5113158;28;20016;-70
2021/07/22 00:06:34;;;;;;;21.95;15.63;;;24.80;99.90;;;;;;5116318;28;20058;-70
2021/07/22 00:09:00;;;;;;;19.27;17.30;;;24.90;99.90;;;;;;5112172;28;20023;-70
2021/07/22 00:11:25;;;;;;;25.42;17.60;;;24.90;99.90;;;;;;5113746;28;20036;-70
2021/07/22 00:13:51;;;;;;;21.25;16.45;;;24.90;99.90;;;;;;5112432;28;20061;-69
2021/07/22 00:16:17;;;;;;;17.05;15.48;;;24.80;99.90;;;;;;5117567;28;20051;-71
2021/07/22 00:18:43;;;;;;;19.08;16.65;;;24.80;99.90;;;;;;5118129;28;20087;-69
2021/07/22 00:21:09;;;;;;;17.10;15.48;;;24.80;99.90;;;;;;5112621;28;20039;-69
2021/07/22 00:23:35;;;;;;;16.27;14.63;;;24.80;99.90;;;;;;5110565;28;20016;-71
2021/07/22 00:26:05;;;;;;;22.02;16.30;;;24.80;99.90;;;;;;5110367;28;20051;-69
2021/07/22 00:28:30;;;;;;;18.08;16.10;;;24.80;99.90;;;;;;5111393;28;20019;-69
2021/07/22 00:30:57;;;;;;;16.00;14.50;;;24.80;99.90;;;;;;5110223;28;20080;-69
2021/07/22 00:33:23;;;;;;;17.55;15.65;;;24.80;99.90;;;;;;5110118;28;20031;-68
2021/07/22 00:35:49;;;;;;;17.38;15.57;;;24.80;99.90;;;;;;5107406;28;20032;-68
2021/07/22 00:38:15;;;;;;;17.08;15.43;;;24.80;99.90;;;;;;5103584;28;20437;-68
2021/07/22 00:40:47;;;;;;;16.45;14.75;;;24.80;99.90;;;;;;5111284;28;20030;-68
2021/07/22 00:43:13;;;;;;;17.75;15.10;;;24.80;99.90;;;;;;5111536;28;20016;-68
2021/07/22 00:45:39;;;;;;;17.35;15.55;;;24.80;99.90;;;;;;5110113;28;20377;-68
2021/07/22 00:48:05;;;;;;;17.45;15.77;;;24.80;99.90;;;;;;5111177;28;20023;-68
2021/07/22 00:50:31;;;;;;;19.20;16.80;;;24.70;99.90;;;;;;5110042;28;20027;-69
2021/07/22 00:52:58;;;;;;;16.17;14.57;;;24.70;99.90;;;;;;5110075;28;20074;-68
2021/07/22 00:55:27;;;;;;;21.60;16.20;;;24.70;99.90;;;;;;5111601;28;20097;-68
2021/07/22 00:57:53;;;;;;;17.08;15.45;;;24.70;99.90;;;;;;5111040;28;20096;-70
2021/07/22 01:00:20;;;;;;;19.92;16.40;;;24.60;99.90;;;;;;5111475;28;20030;-69
2021/07/22 01:02:46;;;;;;;19.13;15.95;;;24.70;99.90;;;;;;5109997;28;20019;-69
2021/07/22 01:05:12;;;;;;;16.02;14.38;;;24.60;99.90;;;;;;5109779;28;20096;-69
2021/07/22 01:07:38;;;;;;;19.25;14.82;;;24.60;99.90;;;;;;5110865;28;20019;-69
2021/07/22 01:10:05;;;;;;;17.58;15.80;;;24.60;99.90;;;;;;5110650;28;20493;-69
2021/07/22 01:12:31;;;;;;;16.67;14.82;;;24.60;99.90;;;;;;5109531;28;20028;-69
2021/07/22 01:14:57;;;;;;;19.58;17.67;;;24.50;99.90;;;;;;5109983;28;20430;-69
2021/07/22 01:17:41;;;;;;;18.15;16.42;;;24.50;99.90;;;;;;5109559;28;20059;-68
2021/07/22 01:20:13;;;;;;;21.60;16.30;;;24.50;99.90;;;;;;5110598;28;20066;-68
2021/07/22 01:22:39;;;;;;;21.50;15.70;;;24.40;99.90;;;;;;5109543;28;20543;-68
2021/07/22 01:25:06;;;;;;;19.23;15.98;;;24.40;99.90;;;;;;5110853;28;20058;-67
2021/07/22 01:27:31;;;;;;;17.58;15.77;;;24.50;99.90;;;;;;5109090;28;20039;-68
2021/07/22 01:29:57;;;;;;;16.45;14.90;;;24.40;99.90;;;;;;5110913;28;20050;-68
2021/07/22 01:32:23;;;;;;;16.75;15.00;;;24.40;99.90;;;;;;5109633;28;20164;-69
2021/07/22 01:34:49;;;;;;;18.25;16.45;;;24.40;99.90;;;;;;5109613;28;20024;-69
2021/07/22 01:37:14;;;;;;;17.02;15.43;;;24.40;99.90;;;;;;5109278;28;20035;-68
2021/07/22 01:39:40;;;;;;;17.67;15.88;;;24.40;99.90;;;;;;5109116;28;20112;-69
2021/07/22 01:42:06;;;;;;;17.38;15.30;;;24.50;99.90;;;;;;5110564;28;20034;-69
2021/07/22 01:44:32;;;;;;;16.33;14.63;;;24.40;99.90;;;;;;5110640;28;20063;-69
2021/07/22 01:46:58;;;;;;;18.10;14.85;;;24.40;99.90;;;;;;5109103;28;20058;-68
2021/07/22 01:49:24;;;;;;;16.80;15.30;;;24.40;99.90;;;;;;5108952;28;20044;-68
2021/07/22 01:51:50;;;;;;;19.30;16.83;;;24.40;99.90;;;;;;5109008;28;20480;-68
2021/07/22 01:54:15;;;;;;;17.08;15.35;;;24.30;99.90;;;;;;5110517;28;20038;-70
2021/07/22 01:56:41;;;;;;;16.00;14.50;;;24.40;99.90;;;;;;5111054;28;20104;-69
2021/07/22 01:59:07;;;;;;;18.55;15.70;;;24.40;99.90;;;;;;5110334;28;20397;-70
2021/07/22 02:01:32;;;;;;;17.10;14.82;;;24.50;99.90;;;;;;5109139;28;20385;-68
2021/07/22 02:03:58;;;;;;;16.83;15.18;;;24.40;99.90;;;;;;5110846;28;20092;-68
2021/07/22 02:06:24;;;;;;;16.85;14.98;;;24.40;99.90;;;;;;5110426;28;20019;-68
2021/07/22 02:08:49;;;;;;;17.80;15.15;;;24.40;99.90;;;;;;5108862;28;20024;-68
2021/07/22 02:11:15;;;;;;;17.85;16.15;;;24.40;99.90;;;;;;5108777;28;20037;-69
2021/07/22 02:13:41;;;;;;;17.08;15.13;;;24.40;99.90;;;;;;5109151;28;20107;-70
2021/07/22 02:16:07;;;;;;;18.17;16.38;;;24.40;99.90;;;;;;5108972;28;20034;-70
2021/07/22 02:18:33;;;;;;;16.60;15.10;;;24.40;99.90;;;;;;5110035;28;20036;-68
2021/07/22 02:21:07;;;;;;;17.45;15.90;;;24.40;99.90;;;;;;5110528;28;20138;-71
2021/07/22 02:23:36;;;;;;;17.45;15.85;;;24.40;99.90;;;;;;5109129;28;20024;-71
2021/07/22 02:26:06;;;;;;;17.80;15.10;;;24.30;99.90;;;;;;5110470;28;20039;-71
2021/07/22 02:28:32;;;;;;;17.15;15.55;;;24.30;99.90;;;;;;5109051;28;20023;-71
2021/07/22 02:30:59;;;;;;;17.13;15.48;;;24.30;99.90;;;;;;5110366;28;20079;-70
2021/07/22 02:33:24;;;;;;;17.85;16.17;;;24.20;99.90;;;;;;5114755;28;20041;-72
2021/07/22 02:35:50;;;;;;;17.13;15.32;;;24.20;99.90;;;;;;5114493;28;20031;-70
2021/07/22 02:38:16;;;;;;;17.20;15.45;;;24.20;99.90;;;;;;5099840;28;20035;-69
2021/07/22 02:40:42;;;;;;;18.02;16.13;;;24.20;99.90;;;;;;5114056;28;20016;-72
2021/07/22 02:43:08;;;;;;;20.35;15.40;;;24.30;99.90;;;;;;5114121;28;20193;-71
2021/07/22 02:45:36;;;;;;;17.40;15.57;;;24.20;99.90;;;;;;5112539;28;20024;-71
2021/07/22 02:48:02;;;;;;;19.05;17.08;;;24.20;99.90;;;;;;5112522;28;20034;-71
2021/07/22 02:50:28;;;;;;;17.75;15.73;;;24.20;99.90;;;;;;5112238;28;20452;-71
2021/07/22 02:52:53;;;;;;;17.80;15.90;;;24.30;99.90;;;;;;5113642;27;20490;-71
2021/07/22 02:55:19;;;;;;;18.13;16.05;;;24.30;99.90;;;;;;5112041;28;20118;-70
2021/07/22 02:57:45;;;;;;;20.27;17.98;;;24.20;99.90;;;;;;5113100;28;20477;-71
2021/07/22 03:00:11;;;;;;;18.38;16.58;;;24.10;99.90;;;;;;5113273;28;20051;-70
2021/07/22 03:02:37;;;;;;;18.45;16.65;;;24.10;99.90;;;;;;5113483;28;20441;-71
2021/07/22 03:05:03;;;;;;;18.52;16.73;;;24.20;99.90;;;;;;5113314;28;20094;-71
2021/07/22 03:07:29;;;;;;;16.95;15.43;;;24.10;99.90;;;;;;5113285;28;20077;-71
2021/07/22 03:09:55;;;;;;;17.88;16.08;;;24.10;99.90;;;;;;5111383;28;20686;-72
2021/07/22 03:12:20;;;;;;;20.13;18.13;;;24.10;99.90;;;;;;5111977;28;20039;-69
2021/07/22 03:14:46;;;;;;;16.92;15.35;;;24.10;99.90;;;;;;5113915;28;20030;-72
2021/07/22 03:17:12;;;;;;;19.98;15.85;;;24.00;99.90;;;;;;5111582;28;20031;-70
2021/07/22 03:19:37;;;;;;;17.70;15.45;;;24.00;99.90;;;;;;5112723;28;20034;-72
2021/07/22 03:22:03;;;;;;;18.52;14.98;;;23.90;99.90;;;;;;5112829;28;20123;-71
2021/07/22 03:24:31;;;;;;;18.42;16.48;;;23.90;99.90;;;;;;5113229;28;20032;-73
2021/07/22 03:26:57;;;;;;;16.73;14.82;;;23.80;99.90;;;;;;5113069;28;20023;-70
2021/07/22 03:29:22;;;;;;;16.98;14.98;;;23.80;99.90;;;;;;5111236;28;20051;-70
2021/07/22 03:31:48;;;;;;;17.02;15.30;;;23.80;99.90;;;;;;5111751;28;20516;-71
2021/07/22 03:34:17;;;;;;;17.33;15.63;;;23.90;99.90;;;;;;5111719;28;20072;-71
2021/07/22 03:36:44;;;;;;;18.98;15.95;;;23.90;99.90;;;;;;5112671;28;20027;-69
2021/07/22 03:39:11;;;;;;;18.52;16.42;;;23.90;99.90;;;;;;5112205;28;20016;-70
2021/07/22 03:41:38;;;;;;;20.27;16.65;;;23.90;99.90;;;;;;5111046;28;20042;-70
2021/07/22 03:44:04;;;;;;;17.38;15.68;;;23.90;99.90;;;;;;5111232;28;20051;-70
2021/07/22 03:46:32;;;;;;;16.73;15.20;;;23.90;99.90;;;;;;5112709;28;20020;-71
2021/07/22 03:48:58;;;;;;;19.10;17.15;;;23.90;99.90;;;;;;5110899;28;20355;-71
2021/07/22 03:51:24;;;;;;;24.20;16.25;;;23.90;99.90;;;;;;5111029;28;20036;-72
2021/07/22 03:53:50;;;;;;;22.45;16.85;;;23.80;99.90;;;;;;5111303;28;20386;-71
2021/07/22 03:56:15;;;;;;;17.00;15.25;;;23.90;99.90;;;;;;5111100;28;20386;-71
2021/07/22 03:58:41;;;;;;;19.67;17.65;;;23.90;99.90;;;;;;5112551;28;20031;-71
2021/07/22 04:01:07;;;;;;;20.75;16.77;;;23.90;99.90;;;;;;5110839;28;20479;-71
2021/07/22 04:03:35;;;;;;;19.27;16.67;;;23.80;99.90;;;;;;5113269;28;20027;-69
2021/07/22 04:06:01;;;;;;;22.17;16.80;;;23.90;99.90;;;;;;5111060;28;20020;-69
2021/07/22 04:08:27;;;;;;;18.23;15.75;;;23.90;99.90;;;;;;5110845;28;20024;-71
2021/07/22 04:10:53;;;;;;;17.90;16.00;;;23.90;99.90;;;;;;5110772;28;20546;-69
2021/07/22 04:13:18;;;;;;;17.58;14.98;;;23.90;99.90;;;;;;5111011;28;20114;-74
2021/07/22 04:15:44;;;;;;;19.30;16.15;;;23.90;99.90;;;;;;5111064;28;20027;-72
2021/07/22 04:18:10;;;;;;;17.25;15.18;;;24.00;99.90;;;;;;5110175;28;20492;-72
2021/07/22 04:20:35;;;;;;;16.88;15.10;;;23.90;99.90;;;;;;5111987;28;20020;-70
2021/07/22 04:23:01;;;;;;;18.17;16.00;;;24.00;99.90;;;;;;5112011;28;20019;-69
2021/07/22 04:25:27;;;;;;;20.60;18.15;;;24.00;99.90;;;;;;5112099;28;20053;-71
2021/07/22 04:27:53;;;;;;;19.40;17.15;;;24.00;99.90;;;;;;5111705;28;20020;-71
2021/07/22 04:30:19;;;;;;;17.75;15.95;;;24.10;99.90;;;;;;5112167;28;20043;-71
2021/07/22 04:32:47;;;;;;;31.50;16.17;;;24.10;99.90;;;;;;5110367;28;20023;-71
2021/07/22 04:35:14;;;;;;;17.77;16.00;;;24.20;99.90;;;;;;5111697;28;20024;-71
2021/07/22 04:37:40;;;;;;;17.52;15.70;;;24.30;99.90;;;;;;5106750;28;20024;-71
2021/07/22 04:40:06;;;;;;;21.23;16.77;;;24.30;99.90;;;;;;5109920;28;20023;-72
2021/07/22 04:42:33;;;;;;;17.80;16.10;;;24.40;99.90;;;;;;5111425;28;20477;-71
2021/07/22 04:45:00;;;;;;;16.90;15.30;;;24.40;99.90;;;;;;5110340;28;20032;-70
2021/07/22 04:47:25;;;;;;;14.73;13.30;;;24.50;99.90;;;;;;5110430;28;20023;-71
2021/07/22 04:49:51;;;;;;;18.67;16.70;;;24.60;99.90;;;;;;5111243;28;20093;-70
2021/07/22 04:52:17;;;;;;;15.88;14.23;;;24.70;99.90;;;;;;5111285;28;20031;-70
2021/07/22 04:54:43;;;;;;;17.83;16.02;;;24.70;99.90;;;;;;5109964;28;20027;-71
2021/07/22 04:57:09;;;;;;;16.75;15.18;;;24.70;99.90;;;;;;5111469;28;20031;-71
2021/07/22 04:59:35;;;;;;;15.90;14.30;;;24.70;99.90;;;;;;5109850;28;20419;-70
2021/07/22 05:02:00;;;;;;;15.82;14.35;;;24.80;99.90;;;;;;5111482;28;20012;-71
2021/07/22 05:04:26;;;;;;;15.80;14.20;;;24.80;99.90;;;;;;5112119;28;20051;-71
2021/07/22 05:06:52;;;;;;;15.88;14.05;;;24.90;99.90;;;;;;5109766;28;20072;-71
2021/07/22 05:09:17;;;;;;;16.23;14.35;;;24.90;99.90;;;;;;5109543;28;20028;-72
2021/07/22 05:11:43;;;;;;;17.15;15.50;;;25.00;99.90;;;;;;5109556;28;20438;-71
2021/07/22 05:14:09;;;;;;;16.10;14.50;;;24.80;99.90;;;;;;5111314;28;21139;-75
2021/07/22 05:16:35;;;;;;;22.13;17.83;;;24.80;99.90;;;;;;5111938;28;20065;-71
2021/07/22 05:19:00;;;;;;;18.60;15.93;;;24.90;99.90;;;;;;5109767;28;20285;-70
2021/07/22 05:21:26;;;;;;;17.08;15.40;;;25.00;99.90;;;;;;5109772;28;20019;-71
2021/07/22 05:23:52;;;;;;;17.55;15.18;;;25.10;99.90;;;;;;5109973;28;20051;-71
2021/07/22 05:26:18;;;;;;;15.93;14.30;;;25.10;99.90;;;;;;5109713;28;20129;-70
2021/07/22 05:28:43;;;;;;;17.65;15.07;;;25.20;99.90;;;;;;5109312;28;20114;-70
2021/07/22 05:31:11;;;;;;;15.07;13.52;;;25.30;99.90;;;;;;5110784;28;20030;-71
2021/07/22 05:33:39;;;;;;;16.13;14.52;;;25.40;99.90;;;;;;5110927;28;20075;-72
2021/07/22 05:36:07;;;;;;;18.60;14.90;;;25.30;99.90;;;;;;5110830;28;20019;-71
2021/07/22 05:38:34;;;;;;;18.45;16.30;;;25.20;99.90;;;;;;5109120;28;20048;-72
2021/07/22 05:41:05;;;;;;;15.90;14.15;;;25.10;99.90;;;;;;5110681;28;20031;-71
2021/07/22 05:43:31;;;;;;;15.80;14.00;;;24.90;99.90;;;;;;5109297;28;20103;-70
2021/07/22 05:45:57;;;;;;;17.00;15.07;;;25.00;99.90;;;;;;5109499;28;20024;-71
2021/07/22 05:48:23;;;;;;;15.43;13.90;;;25.00;99.90;;;;;;5110511;28;20085;-71
2021/07/22 05:50:49;;;;;;;14.48;13.15;;;25.20;99.90;;;;;;5110860;28;20416;-73
2021/07/22 05:53:19;;;;;;;15.48;13.88;;;25.10;99.90;;;;;;5111017;28;20466;-71
2021/07/22 05:55:45;;;;;;;16.50;14.00;;;25.10;99.90;;;;;;5110941;28;20036;-71
2021/07/22 05:58:11;;;;;;;16.70;15.00;;;25.20;99.90;;;;;;5111210;28;20096;-71
2021/07/22 06:00:37;;;;;;;15.30;13.82;;;25.40;99.90;;;;;;5111442;28;20024;-71
2021/07/22 06:03:06;;;;;;;16.67;14.05;;;25.30;99.90;;;;;;5109701;28;20056;-70
2021/07/22 06:05:33;;;;;;;18.38;14.38;;;25.40;99.90;;;;;;5111139;28;20035;-71
2021/07/22 06:08:01;;;;;;;22.25;14.57;;;25.30;99.90;;;;;;5112991;28;20050;-71
2021/07/22 06:10:27;;;;;;;15.45;13.88;;;25.50;99.90;;;;;;5114143;28;20019;-70
2021/07/22 06:12:54;;;;;;;13.90;12.60;;;25.50;99.90;;;;;;5113160;28;20020;-71
2021/07/22 06:15:20;;;;;;;14.70;13.35;;;25.60;99.90;;;;;;5114281;28;20024;-70
2021/07/22 06:17:46;;;;;;;17.75;13.70;;;25.50;99.90;;;;;;5113820;28;20051;-69
2021/07/22 06:20:12;;;;;;;21.67;13.27;;;25.40;99.90;;;;;;5112694;28;20461;-71
2021/07/22 06:22:38;;;;;;;16.38;13.88;;;25.30;99.90;;;;;;5113180;28;20302;-70
2021/07/22 06:25:06;;;;;;;20.75;14.88;;;25.40;99.90;;;;;;5115094;28;20016;-71
2021/07/22 06:27:32;;;;;;;14.43;12.93;;;25.40;99.90;;;;;;5114088;28;20362;-70
2021/07/22 06:30:01;;;;;;;14.93;12.63;;;25.40;99.90;;;;;;5114158;28;20102;-71
2021/07/22 06:32:27;;;;;;;18.35;14.20;;;25.40;99.90;;;;;;5112716;28;20024;-71
2021/07/22 06:34:53;;;;;;;22.98;14.18;;;25.50;99.90;;;;;;5112874;28;20020;-70
2021/07/22 06:37:18;;;;;;;17.73;14.25;;;25.60;99.90;;;;;;5118325;28;20066;-69
2021/07/22 06:39:44;;;;;;;14.35;12.35;;;25.70;99.90;;;;;;5106990;28;20497;-70
2021/07/22 06:42:10;;;;;;;14.82;12.88;;;25.60;99.90;;;;;;5112041;28;20068;-70
2021/07/22 06:44:36;;;;;;;15.18;13.55;;;25.70;99.90;;;;;;5113728;28;20152;-70
2021/07/22 06:47:02;;;;;;;13.70;12.30;;;25.80;99.90;;;;;;5112407;28;20019;-71
2021/07/22 06:49:28;;;;;;;14.30;12.77;;;25.90;99.90;;;;;;5113846;28;20082;-72
2021/07/22 06:51:53;;;;;;;15.77;13.70;;;26.00;99.90;;;;;;5114455;28;20633;-72
2021/07/22 06:54:20;;;;;;;14.75;13.07;;;26.00;99.90;;;;;;5112418;28;20486;-69
2021/07/22 06:56:46;;;;;;;18.02;11.40;;;25.80;99.90;;;;;;5113778;28;20016;-70
2021/07/22 06:59:12;;;;;;;14.70;12.57;;;25.60;99.90;;;;;;5113422;28;20027;-72
2021/07/22 07:01:38;;;;;;;13.70;12.30;;;25.60;99.90;;;;;;5113649;28;20394;-70
2021/07/22 07:04:04;;;;;;;15.27;12.82;;;25.80;99.90;;;;;;5112267;28;20359;-72
2021/07/22 07:06:32;;;;;;;16.75;13.15;;;25.80;99.90;;;;;;5113916;28;20023;-69
2021/07/22 07:08:58;;;;;;;14.52;13.02;;;25.90;99.90;;;;;;5113385;28;20023;-70
2021/07/22 07:11:24;;;;;;;15.13;12.50;;;25.90;99.90;;;;;;5111942;28;20131;-72
2021/07/22 07:13:49;;;;;;;16.70;13.35;;;26.00;99.90;;;;;;5113400;28;20019;-72
2021/07/22 07:16:16;;;;;;;13.23;11.65;;;26.20;99.90;;;;;;5112982;28;20028;-72
2021/07/22 07:18:42;;;;;;;14.43;13.02;;;26.30;99.90;;;;;;5111497;28;20106;-73
2021/07/22 07:21:08;;;;;;;13.50;12.20;;;26.30;99.90;;;;;;5113139;28;20090;-72
2021/07/22 07:23:34;;;;;;;13.68;12.27;;;26.40;99.90;;;;;;5113289;28;20051;-70
2021/07/22 07:26:00;;;;;;;16.05;12.68;;;26.50;99.90;;;;;;5113253;28;20019;-71
2021/07/22 07:28:27;;;;;;;13.25;12.00;;;26.80;99.90;;;;;;5111426;28;20023;-71
2021/07/22 07:30:53;;;;;;;20.65;15.38;;;26.80;99.90;;;;;;5111908;28;20024;-71
2021/07/22 07:33:19;;;;;;;16.73;14.13;;;26.80;99.90;;;;;;5113310;28;20110;-71
2021/07/22 07:35:44;;;;;;;16.75;13.98;;;26.80;99.90;;;;;;5113212;28;20032;-72
2021/07/22 07:38:10;;;;;;;41.47;17.50;;;27.20;99.90;;;;;;5112758;28;20028;-71
2021/07/22 07:40:36;;;;;;;19.73;13.30;;;27.30;99.90;;;;;;5111551;28;20107;-72
2021/07/22 07:43:02;;;;;;;14.52;13.23;;;27.20;99.90;;;;;;5112605;28;20174;-71
2021/07/22 07:45:31;;;;;;;14.38;13.10;;;27.10;99.90;;;;;;5112796;28;20019;-70
2021/07/22 07:47:57;;;;;;;37.65;17.67;;;27.10;99.90;;;;;;5112444;28;20020;-72
2021/07/22 07:50:22;;;;;;;44.92;17.05;;;27.00;99.90;;;;;;5112592;28;20027;-71
2021/07/22 07:52:48;;;;;;;18.95;13.50;;;27.00;99.90;;;;;;5112459;28;20032;-70
2021/07/22 07:55:15;;;;;;;18.63;12.70;;;27.10;99.90;;;;;;5111488;28;20108;-71
2021/07/22 07:57:41;;;;;;;23.60;12.88;;;27.20;99.90;;;;;;5111951;28;20016;-72
2021/07/22 08:00:08;;;;;;;16.95;11.98;;;27.50;99.90;;;;;;5111060;28;20035;-70
2021/07/22 08:02:34;;;;;;;16.15;13.70;;;27.70;99.90;;;;;;5112200;28;20026;-72
2021/07/22 08:05:01;;;;;;;18.55;13.68;;;27.80;99.90;;;;;;5110955;28;20073;-72
2021/07/22 08:07:27;;;;;;;18.05;14.52;;;27.50;99.90;;;;;;5111013;28;20046;-71
2021/07/22 08:09:53;;;;;;;21.10;12.40;;;27.30;99.90;;;;;;5110506;28;20024;-71
2021/07/22 08:12:19;;;;;;;14.75;12.95;;;27.20;99.90;;;;;;5112140;28;20115;-71
2021/07/22 08:14:46;;;;;;;16.35;13.05;;;27.20;99.90;;;;;;5110982;28;20058;-71
2021/07/22 08:17:16;;;;;;;15.10;11.80;;;27.20;99.90;;;;;;5111974;28;20103;-72
2021/07/22 08:19:41;;;;;;;92.88;24.38;;;27.20;99.90;;;;;;5111847;28;20105;-71
2021/07/22 08:22:11;;;;;;;16.90;14.80;;;27.40;99.90;;;;;;5111893;28;20443;-71
2021/07/22 08:24:37;;;;;;;20.85;13.40;;;27.30;99.90;;;;;;5111716;28;20026;-71
2021/07/22 08:27:03;;;;;;;23.45;14.68;;;27.40;99.90;;;;;;5111805;28;20099;-70
2021/07/22 08:29:29;;;;;;;13.80;12.50;;;27.40;99.90;;;;;;5109513;28;20111;-70
2021/07/22 08:31:54;;;;;;;13.70;12.43;;;27.40;99.90;;;;;;5110208;28;20046;-71
2021/07/22 08:34:21;;;;;;;23.20;14.70;;;27.50;99.90;;;;;;5111736;28;20046;-71
2021/07/22 08:36:47;;;;;;;14.90;13.38;;;27.40;99.90;;;;;;5110204;28;20027;-71
2021/07/22 08:39:13;;;;;;;17.25;13.38;;;27.50;99.90;;;;;;5105777;28;20049;-69
2021/07/22 08:41:44;;;;;;;22.55;13.77;;;27.60;99.90;;;;;;5108396;28;20028;-70
2021/07/22 08:44:10;;;;;;;;;;;27.50;99.90;;;;;;5110632;28;20382;-71
2021/07/22 08:46:40;;;;;;;72.00;26.48;;;27.70;99.90;;;;;;5110207;28;19939;-71
2021/07/22 08:49:06;;;;;;;20.15;14.05;;;27.90;99.90;;;;;;5111324;28;20020;-70
2021/07/22 08:51:32;;;;;;;13.13;11.80;;;28.10;99.90;;;;;;5110124;28;20084;-69
2021/07/22 08:53:58;;;;;;;32.42;14.45;;;28.20;99.90;;;;;;5111337;28;20023;-70
2021/07/22 08:56:26;;;;;;;15.70;13.85;;;27.90;99.90;;;;;;5111341;28;20173;-70
2021/07/22 08:58:52;;;;;;;13.85;12.57;;;27.70;99.90;;;;;;5109846;28;20118;-70
2021/07/22 09:01:19;;;;;;;14.07;12.63;;;27.70;99.90;;;;;;5111233;28;20038;-69
2021/07/22 09:03:45;;;;;;;16.83;13.48;;;27.70;99.90;;;;;;5109809;28;20019;-70
2021/07/22 09:06:14;;;;;;;14.57;13.10;;;27.70;99.90;;;;;;5109978;28;20016;-70
2021/07/22 09:08:41;;;;;;;19.80;13.57;;;27.80;99.90;;;;;;5109741;28;20019;-70
2021/07/22 09:11:11;;;;;;;15.07;11.85;;;27.80;99.90;;;;;;5110550;28;20456;-71
2021/07/22 09:13:37;;;;;;;32.75;17.55;;;27.80;99.90;;;;;;5109980;28;20125;-68
2021/07/22 09:16:04;;;;;;;32.08;14.50;;;27.90;99.90;;;;;;5111370;28;20397;-70
2021/07/22 09:18:34;;;;;;;17.23;13.35;;;28.10;99.90;;;;;;5110847;28;20027;-71
2021/07/22 09:21:23;;;;;;;14.50;12.88;;;28.30;99.90;;;;;;5111240;28;20076;-70
2021/07/22 09:24:05;;;;;;;16.85;13.68;;;28.30;99.90;;;;;;5109543;28;20358;-70
2021/07/22 09:26:35;;;;;;;18.85;13.02;;;28.20;99.90;;;;;;5110804;28;20416;-69
2021/07/22 09:29:08;;;;;;;31.15;14.80;;;28.20;99.90;;;;;;5110690;28;20055;-69
2021/07/22 09:31:35;;;;;;;48.83;16.42;;;28.20;99.90;;;;;;5109471;28;20122;-71
2021/07/22 09:34:01;;;;;;;14.57;13.10;;;28.20;99.90;;;;;;5110814;28;20024;-71
2021/07/22 09:36:27;;;;;;;29.25;17.23;;;28.30;99.90;;;;;;5111011;28;20020;-72
2021/07/22 09:38:53;;;;;;;44.25;15.75;;;28.30;99.90;;;;;;5111684;28;20050;-71
2021/07/22 09:41:22;;;;;;;18.35;14.20;;;28.30;99.90;;;;;;5113804;28;20034;-70
2021/07/22 09:43:49;;;;;;;15.13;13.43;;;28.40;99.90;;;;;;5115353;28;20090;-69
2021/07/22 09:46:15;;;;;;;17.88;15.13;;;28.60;99.90;;;;;;5113435;28;20020;-70
2021/07/22 09:49:12;;;;;;;15.70;14.10;;;28.60;99.90;;;;;;5113242;28;20076;-70
2021/07/22 09:51:38;;;;;;;17.48;13.60;;;28.50;99.90;;;;;;5115014;28;20030;-70
2021/07/22 09:54:12;;;;;;;22.70;15.75;;;28.80;99.90;;;;;;5114573;28;20019;-70
2021/07/22 09:56:41;;;;;;;22.08;13.57;;;29.00;99.90;;;;;;5113209;28;20028;-71
2021/07/22 09:59:09;;;;;;;16.50;14.85;;;29.40;99.90;;;;;;5113098;28;20434;-70
2021/07/22 10:01:48;;;;;;;17.58;15.07;;;29.60;99.90;;;;;;5113165;28;20073;-71
2021/07/22 10:04:17;;;;;;;16.63;14.35;;;29.80;99.90;;;;;;5114269;28;20035;-70
2021/07/22 10:06:44;;;;;;;15.13;13.45;;;29.80;99.90;;;;;;5113335;28;20110;-71
2021/07/22 10:09:19;;;;;;;14.85;13.52;;;30.00;99.90;;;;;;5114354;28;20069;-71
2021/07/22 10:11:46;;;;;;;15.00;13.60;;;30.40;99.90;;;;;;5114158;28;20023;-71
2021/07/22 10:14:18;;;;;;;16.10;14.52;;;30.40;99.90;;;;;;5113208;28;20032;-71
2021/07/22 10:16:47;;;;;;;15.73;14.18;;;30.10;99.90;;;;;;5114438;28;20432;-72
2021/07/22 10:19:13;;;;;;;15.73;14.23;;;30.30;99.90;;;;;;5114184;28;20051;-72
2021/07/22 10:21:38;;;;;;;14.38;13.18;;;31.00;99.90;;;;;;5113018;28;20066;-71
2021/07/22 10:24:06;;;;;;;17.38;13.93;;;31.50;99.90;;;;;;5115033;28;20024;-71
2021/07/22 10:26:39;;;;;;;16.38;14.35;;;31.80;99.90;;;;;;5114836;28;20047;-73
2021/07/22 10:29:05;;;;;;;14.52;13.13;;;31.90;99.90;;;;;;5113453;28;20404;-71
2021/07/22 10:31:34;;;;;;;17.98;16.33;;;32.10;99.90;;;;;;5113940;28;20107;-72
2021/07/22 10:34:00;;;;;;;14.43;13.20;;;32.20;99.90;;;;;;5114989;28;20389;-72
2021/07/22 10:36:27;;;;;;;16.30;14.05;;;31.90;99.90;;;;;;5121186;28;20031;-73
2021/07/22 10:38:52;;;;;;;15.35;13.88;;;31.70;99.90;;;;;;5122586;28;20019;-72
2021/07/22 10:41:39;;;;;;;15.77;14.27;;;31.70;99.90;;;;;;5115280;28;20042;-71
2021/07/22 10:44:32;;;;;;;14.90;13.45;;;32.10;99.90;;;;;;5124128;28;20043;-71
2021/07/22 10:47:04;;;;;;;14.73;13.35;;;32.60;99.90;;;;;;5114316;27;20050;-70
2021/07/22 10:49:40;;;;;;;16.95;13.75;;;32.80;99.90;;;;;;5115337;28;20110;-71
2021/07/22 10:52:10;;;;;;;17.55;14.10;;;33.10;99.90;;;;;;5116041;28;20031;-71
2021/07/22 10:54:38;;;;;;;17.63;15.80;;;33.40;99.90;;;;;;5116376;28;20493;-69
2021/07/22 10:57:05;;;;;;;15.93;14.00;;;33.10;99.90;;;;;;5115041;28;20135;-71
2021/07/22 10:59:55;;;;;;;15.45;13.75;;;32.70;99.90;;;;;;5113823;28;20028;-72
2021/07/22 11:02:51;;;;;;;17.80;15.73;;;31.80;99.90;;;;;;5113889;27;20137;-73
2021/07/22 11:05:24;;;;;;;18.77;15.50;;;30.90;99.90;;;;;;5104444;28;20020;-71
2021/07/22 11:08:21;;;;;;;19.80;15.40;;;30.30;99.90;;;;;;5113104;28;20103;-72
2021/07/22 11:10:58;;;;;;;21.75;14.88;;;29.90;99.90;;;;;;5113204;28;20061;-70
2021/07/22 11:13:40;;;;;;;22.15;15.90;;;29.60;99.90;;;;;;5111950;28;20072;-73
2021/07/22 11:16:10;;;;;;;24.10;16.15;;;29.40;99.90;;;;;;5111748;28;20027;-72
2021/07/22 11:18:54;;;;;;;16.20;14.73;;;29.20;99.90;;;;;;5111836;28;20092;-72
2021/07/22 11:21:27;;;;;;;16.98;15.32;;;29.20;99.90;;;;;;5113209;28;20081;-72
2021/07/22 11:23:58;;;;;;;17.33;15.52;;;29.10;99.90;;;;;;5095416;28;20072;-71
2021/07/22 11:26:36;;;;;;;19.23;15.90;;;29.10;99.90;;;;;;5111714;28;20487;-71
2021/07/22 11:29:05;;;;;;;17.38;15.68;;;29.20;99.90;;;;;;5112674;28;20055;-70
2021/07/22 11:31:32;;;;;;;23.83;14.82;;;29.30;99.90;;;;;;5112798;28;20532;-71
2021/07/22 11:34:03;;;;;;;20.50;15.82;;;29.10;99.90;;;;;;5113008;28;20027;-71
2021/07/22 11:36:33;;;;;;;17.85;16.15;;;29.00;99.90;;;;;;5113008;28;20081;-70
2021/07/22 11:38:59;;;;;;;20.98;17.45;;;29.00;99.90;;;;;;5110816;28;20107;-71
2021/07/22 11:41:25;;;;;;;24.73;16.95;;;29.00;99.90;;;;;;5111522;28;20546;-71
2021/07/22 11:44:02;;;;;;;19.42;15.18;;;28.80;99.90;;;;;;5112901;28;20098;-71
2021/07/22 11:46:35;;;;;;;31.90;16.42;;;28.60;99.90;;;;;;5112555;28;20099;-71
2021/07/22 11:49:11;;;;;;;19.77;14.32;;;28.50;99.90;;;;;;5112256;28;20019;-71
2021/07/22 11:51:39;;;;;;;20.38;14.55;;;28.40;99.90;;;;;;5110935;28;20055;-72
2021/07/22 11:54:05;;;;;;;17.42;14.70;;;28.50;99.90;;;;;;5111115;28;20134;-71
2021/07/22 11:56:33;;;;;;;19.88;14.65;;;28.70;99.90;;;;;;5112512;28;20209;-71
2021/07/22 11:59:00;;;;;;;21.48;15.43;;;28.80;99.90;;;;;;5112075;28;20084;-71
2021/07/22 12:01:26;;;;;;;28.40;15.93;;;28.90;99.90;;;;;;5112689;28;20024;-71
2021/07/22 12:03:52;;;;;;;24.35;17.40;;;28.90;99.90;;;;;;5111359;28;20027;-69
2021/07/22 12:06:25;;;;;;;28.60;16.23;;;28.60;99.90;;;;;;5112284;28;20425;-70
2021/07/22 12:09:09;;;;;;;20.17;15.25;;;28.40;99.90;;;;;;5112073;28;20058;-72
2021/07/22 12:11:48;;;;;;;24.48;16.67;;;28.40;99.90;;;;;;5111629;28;20059;-72
2021/07/22 12:14:24;;;;;;;19.55;15.93;;;28.30;99.90;;;;;;5111966;28;20110;-70
2021/07/22 12:16:50;;;;;;;17.98;15.32;;;28.10;99.90;;;;;;5112211;28;20024;-71
2021/07/22 12:19:21;;;;;;;17.55;14.88;;;28.00;99.90;;;;;;5110366;28;20387;-71
2021/07/22 12:21:46;;;;;;;19.90;15.45;;;27.90;99.90;;;;;;5111077;28;20050;-71
2021/07/22 12:24:19;;;;;;;22.83;17.17;;;27.90;99.90;;;;;;5112118;28;20047;-72
2021/07/22 12:26:45;;;;;;;18.23;16.05;;;27.90;99.90;;;;;;5111005;28;20027;-71
2021/07/22 12:29:18;;;;;;;20.25;15.20;;;27.80;99.90;;;;;;5111715;28;20020;-71
2021/07/22 12:31:43;;;;;;;17.02;15.18;;;27.90;99.90;;;;;;5110617;28;20027;-74